Flight Track Log - Related Links

Times and Time Zones

All times are in EDT time to prevent confusion due to time zone crossing. See the RPA4907 flight status page for this flight to view local times or setup timezone preferences in your user account.

Time Position Orientation Groundspeed Altitude Reporting Facility
EDT Latitude Longitude Course Direction KTS MPH feet Rate Location/Type
Fri 11:18:46 AM 42.8850 -73.9022 80° East 222 255 2,000  Level Boston Center
Fri 11:19:46 AM 42.8942 -73.8344 80° East 220 253 2,000 -142 Level Boston Center
Fri 11:20:53 AM 42.8339 -73.8103 164° South 196 226 1,700 -469 Descending Boston Center
Fri 11:21:54 AM 42.7922 -73.8067 176° South 125 144 1,000 6,690 Descending Boston Center
Fri 11:24:13 AM 42.7922 -73.6228 90° East 155 178 24,000 40 Climbing Boston Center
Fri 11:26:00 AM 42.6798 -73.7435 270° West  Level Estimated
Fri 11:33:00 AM 42.2373 -74.2133 219° Southwest  Level Estimated
Fri 11:34:00 AM 42.2631 -74.3161 289° West  Level FlightAware Approximate
Fri 11:35:00 AM 42.1988 -74.3810 216° Southwest  Level Estimated
Fri 11:36:00 AM 42.1344 -74.4457 219° Southwest  Level Estimated
Fri 11:37:00 AM 42.1415 -74.5536 275° West  Level FlightAware Approximate
Fri 11:38:00 AM 42.1485 -74.6615 275° West  Level FlightAware Approximate
Fri 11:39:00 AM 42.0823 -74.7228 249° West  Level Estimated
Fri 11:40:00 AM 42.0161 -74.7840 246° West  Level Estimated
Fri 11:41:00 AM 41.9499 -74.8450 243° Southwest  Level Estimated
Fri 11:42:00 AM 41.8836 -74.9059 246° West  Level Estimated
Fri 11:43:00 AM 41.8173 -74.9667 235° Southwest  Level Estimated
Fri 11:44:00 AM 41.8117 -75.0742 266° West  Level FlightAware Approximate
Fri 11:45:00 AM 41.8061 -75.1817 266° West  Level FlightAware Approximate
Fri 11:46:00 AM 41.8003 -75.2891 266° West  Level FlightAware Approximate
Fri 11:47:00 AM 41.7945 -75.3965 266° West  Level FlightAware Approximate
Fri 11:48:00 AM 41.7885 -75.5039 266° West  Level FlightAware Approximate
Fri 11:49:00 AM 41.7178 -75.5549 239° Southwest  Level Estimated
Fri 11:50:00 AM 41.7003 -75.6599 257° West  Level FlightAware Approximate
Fri 11:51:00 AM 41.6827 -75.7648 257° West  Level FlightAware Approximate
Fri 11:52:00 AM 41.6650 -75.8697 257° West  Level FlightAware Approximate
Fri 11:53:00 AM 41.5920 -75.9143 234° Southwest  Level Estimated
Fri 11:54:00 AM 41.5657 -76.0158 251° West  Level FlightAware Approximate
Fri 11:55:00 AM 41.5394 -76.1171 251° West  Level FlightAware Approximate
Fri 11:56:00 AM 41.4649 -76.1573 239° Southwest  Level Estimated
Fri 11:57:00 AM 41.4429 -76.2603 254° West  Level FlightAware Approximate
Fri 11:58:00 AM 41.3677 -76.2979 190° South  Level Estimated
Fri 11:59:00 AM 41.3166 -76.3803 230° Southwest  Level FlightAware Approximate
Fri 12:00:00 PM 41.2654 -76.4627 230° Southwest  Level FlightAware Approximate
Fri 12:01:00 PM 41.2142 -76.5449 230° Southwest  Level FlightAware Approximate
Fri 12:02:00 PM 41.1376 -76.5769 187° South  Level Estimated
Fri 12:03:00 PM 41.0725 -76.6392 216° Southwest  Level FlightAware Approximate
Fri 12:04:00 PM 41.0073 -76.7014 216° Southwest  Level FlightAware Approximate
Fri 12:05:00 PM 40.9404 -76.7268 193° South  Level Estimated
Fri 12:06:00 PM 40.8758 -76.7609 202° Southwest  Level FlightAware Approximate
Fri 12:07:00 PM 40.8111 -76.7949 202° Southwest  Level FlightAware Approximate
Fri 12:08:00 PM 40.7464 -76.8288 202° Southwest  Level FlightAware Approximate
Fri 12:09:00 PM 40.6817 -76.8626 202° Southwest  Level FlightAware Approximate
Fri 12:10:00 PM 40.6145 -76.8864 189° South  Level Estimated
Fri 12:11:00 PM 40.5488 -76.9166 199° South  Level FlightAware Approximate
Fri 12:12:00 PM 40.4815 -76.9399 197° South  Level Estimated
Fri 12:13:00 PM 40.4142 -76.9633 194° South  Level Estimated
Fri 12:14:00 PM 40.3469 -76.9865 194° South  Level Estimated
Fri 12:15:00 PM 40.2808 -77.0151 198° South  Level FlightAware Approximate
Fri 12:16:00 PM 40.2135 -77.0380 201° Southwest  Level Estimated
Fri 12:17:00 PM 40.1461 -77.0608 192° South  Level Estimated
Fri 12:18:00 PM 40.0785 -77.0825 194° South  Level FlightAware Approximate
Fri 12:19:00 PM 40.0112 -77.1053 194° South  Level Estimated
Fri 12:20:00 PM 39.9441 -77.1297 196° South  Level FlightAware Approximate
Fri 12:21:00 PM 39.8767 -77.1523 194° South  Level Estimated
Fri 12:21:44 PM 42.6733 -73.8239 193° South 210 242 3,400  Level Boston Center
Fri 12:22:00 PM 39.7990 -77.1784 232° Southwest  Level Estimated
Fri 12:23:00 PM 39.7212 -77.2044 189° South  Level Estimated
Fri 12:23:01 PM 42.6722 -73.9197 269° West 234 269 6,400  Level Boston Center
Fri 12:24:00 PM 39.6434 -77.2304 180° South  Level Estimated
Fri 12:24:01 PM 42.6858 -73.9936 284° West 227 261 9,000  Level Boston Center
Fri 12:25:00 PM 39.5657 -77.2562 186° South  Level Estimated
Fri 12:25:01 PM 42.7053 -74.0872 286° West 221 254 10,600  Level Boston Center
Fri 12:26:01 PM 42.7206 -74.1781 283° West 239 275 11,900 1,450 Climbing Boston Center
Fri 12:27:01 PM 42.7397 -74.2778 285° West 262 302 13,500 1,600 Climbing Boston Center
Fri 12:28:01 PM 42.7094 -74.3531 241° Southwest 245 282 15,100 1,550 Climbing Boston Center
Fri 12:29:01 PM 42.6542 -74.4133 219° Southwest 237 273 16,600 1,350 Climbing Boston Center
Fri 12:30:01 PM 42.6011 -74.4739 220° Southwest 249 287 17,800 1,450 Climbing Boston Center
Fri 12:31:01 PM 42.5561 -74.5314 223° Southwest 249 287 19,500 1,500 Climbing Boston Center
Fri 12:32:01 PM 42.5050 -74.5889 220° Southwest 249 287 20,800 1,200 Climbing Boston Center
Fri 12:33:01 PM 42.4603 -74.6464 223° Southwest 239 275 21,900 600 Climbing Boston Center
Fri 12:34:01 PM 42.4211 -74.7267 237° Southwest 239 275 22,000 50 Climbing Boston Center
Fri 12:35:01 PM 42.3775 -74.8150 236° Southwest 268 308 22,000  Level Boston Center
Fri 12:36:01 PM 42.3319 -74.9061 236° Southwest 290 334 22,000  Level Boston Center
Fri 12:37:49 PM 42.2364 -75.0842 234° Southwest 320 368 22,000  Level New York Center
Fri 12:38:50 PM 42.1869 -75.1844 236° Southwest 325 374 22,000  Level New York Center
Fri 12:39:47 PM 42.1356 -75.2789 234° Southwest 325 374 22,000  Level New York Center
Fri 12:40:48 PM 42.0883 -75.3678 234° Southwest 320 368 22,000  Level New York Center
Fri 12:41:49 PM 42.0456 -75.4514 235° Southwest 304 350 22,000  Level New York Center
Fri 12:42:50 PM 42.0025 -75.5378 236° Southwest 290 334 22,000  Level New York Center
Fri 12:43:50 PM 41.9556 -75.6208 233° Southwest 290 334 22,000  Level New York Center
Fri 12:44:48 PM 41.9103 -75.7094 236° Southwest 290 334 22,000  Level New York Center
Fri 12:45:48 PM 41.8628 -75.7950 233° Southwest 290 334 22,000  Level New York Center
Fri 12:46:49 PM 41.8197 -75.8808 236° Southwest 290 334 22,000 -49 Level New York Center
Fri 12:47:50 PM 41.7722 -75.9661 233° Southwest 290 334 21,900 -744 Descending New York Center
Fri 12:48:50 PM 41.7286 -76.0572 237° Southwest 295 339 20,500 -1,475 Descending New York Center
Fri 12:49:48 PM 41.6811 -76.1422 233° Southwest 295 339 19,000 -1,525 Descending New York Center
Fri 12:50:48 PM 41.6378 -76.2222 234° Southwest 295 339 17,500 -1,350 Descending New York Center
Fri 12:51:48 PM 41.5992 -76.2911 233° Southwest 274 315 16,300 -744 Descending New York Center
Fri 12:52:49 PM 41.5469 -76.3867 234° Southwest 286 329 16,000 -148 Descending New York Center
Fri 12:53:50 PM 41.4736 -76.4386 208° Southwest 286 329 16,000  Level New York Center
Fri 12:54:50 PM 41.3983 -76.4875 206° Southwest 301 346 16,000  Level New York Center
Fri 12:55:48 PM 41.3294 -76.5314 206° Southwest 307 353 16,000  Level New York Center
Fri 12:56:49 PM 41.2519 -76.5828 207° Southwest 317 365 16,000  Level New York Center
Fri 12:57:50 PM 41.1681 -76.6364 206° Southwest 312 359 16,000  Level New York Center
Fri 12:58:48 PM 41.0989 -76.6881 209° Southwest 312 359 16,000  Level New York Center
Fri 12:59:48 PM 41.0236 -76.7367 206° Southwest 312 359 16,000  Level New York Center
Fri 01:00:49 PM 40.9397 -76.7897 206° Southwest 312 359 16,000  Level New York Center
Fri 01:01:49 PM 40.8642 -76.8406 207° Southwest 312 359 16,000  Level New York Center
Fri 01:02:48 PM 40.7886 -76.8889 206° Southwest 312 359 16,000  Level New York Center
Fri 01:03:48 PM 40.7094 -76.9283 201° Southwest 306 352 16,000 50 Level New York Center
Fri 01:04:49 PM 40.6306 -76.9650 199° South 301 346 16,100 49 Climbing New York Center
Fri 01:05:51 PM 40.5492 -77.0042 200° South 301 346 16,100  Level New York Center
Fri 01:06:48 PM 40.4683 -77.0378 198° South 311 358 16,100 -256 Level New York Center
Fri 01:07:48 PM 40.3869 -77.0767 200° South 311 358 15,600 -750 Descending New York Center
Fri 01:08:48 PM 40.3144 -77.1081 198° South 311 358 14,600 -900 Descending New York Center
Fri 01:09:48 PM 40.2522 -77.1378 200° South 311 358 13,800 -1,014 Descending New York Center
Fri 01:12:15 PM 40.0333 -77.2167 195° South 294 338 11,100 -1,101 Descending Potomac TRACON
Fri 01:13:15 PM 39.9667 -77.2500 201° Southwest 287 330 10,000 -1,350 Descending Potomac TRACON
Fri 01:14:15 PM 39.8833 -77.2667 189° South 285 328 8,400 -1,450 Descending Potomac TRACON
Fri 01:15:15 PM 39.8167 -77.2833 191° South 270 311 7,100 -700 Descending Potomac TRACON
Fri 01:16:15 PM 39.7500 -77.3000 191° South 253 291 7,000  Descending Potomac TRACON
Fri 01:17:15 PM 39.6833 -77.3333 201° Southwest 249 287 7,100 50 Climbing Potomac TRACON
Fri 01:18:15 PM 39.6167 -77.3667 201° Southwest 248 285 7,100 -50 Level Potomac TRACON
Fri 01:19:15 PM 39.5500 -77.4167 210° Southwest 257 296 7,000 -50 Descending Potomac TRACON
Fri 01:20:16 PM 39.4833 -77.4500 201° Southwest 255 293 7,000  Level Potomac TRACON
Fri 01:21:16 PM 39.4000 -77.4500 180° South 267 307 7,000  Level Potomac TRACON
Fri 01:22:16 PM 39.3333 -77.4500 180° South 259 298 7,000 -800 Level Potomac TRACON
Fri 01:23:16 PM 39.2667 -77.4500 180° South 241 277 5,400 -1,500 Descending Potomac TRACON
Fri 01:24:16 PM 39.2000 -77.4500 180° South 229 264 4,000 -900 Descending Potomac TRACON
Fri 01:25:16 PM 39.1500 -77.4500 180° South 199 229 3,600 -700 Descending Potomac TRACON
Fri 01:26:16 PM 39.1000 -77.4500 180° South 189 217 2,600 -1,000 Descending Potomac TRACON

Login

Don't have an account? Register now (free) for customized features, flight alerts, and more!